sensor_id;sensor_type;location;lat;lon;timestamp;P1;durP1;ratioP1;P2;durP2;ratioP2
6928;SDS011;3504;52.616;13.238;2023-06-10T00:00:53;12.68;;;5.90;;
6928;SDS011;3504;52.616;13.238;2023-06-10T00:05:55;11.02;;;5.50;;
6928;SDS011;3504;52.616;13.238;2023-06-10T00:10:56;11.67;;;5.50;;
6928;SDS011;3504;52.616;13.238;2023-06-10T00:15:56;13.67;;;5.63;;
6928;SDS011;3504;52.616;13.238;2023-06-10T00:20:57;12.40;;;5.97;;
6928;SDS011;3504;52.616;13.238;2023-06-10T00:26:04;8.80;;;5.63;;
6928;SDS011;3504;52.616;13.238;2023-06-10T00:31:04;12.40;;;6.17;;
6928;SDS011;3504;52.616;13.238;2023-06-10T00:36:06;9.43;;;5.70;;
6928;SDS011;3504;52.616;13.238;2023-06-10T00:41:06;9.40;;;5.20;;
6928;SDS011;3504;52.616;13.238;2023-06-10T00:46:07;9.50;;;5.67;;
6928;SDS011;3504;52.616;13.238;2023-06-10T00:51:09;15.50;;;5.30;;
6928;SDS011;3504;52.616;13.238;2023-06-10T00:56:10;11.03;;;5.80;;
6928;SDS011;3504;52.616;13.238;2023-06-10T01:01:10;11.57;;;5.47;;
6928;SDS011;3504;52.616;13.238;2023-06-10T01:06:20;11.07;;;5.50;;
6928;SDS011;3504;52.616;13.238;2023-06-10T01:11:36;8.80;;;5.37;;
6928;SDS011;3504;52.616;13.238;2023-06-10T01:16:46;13.37;;;5.43;;
6928;SDS011;3504;52.616;13.238;2023-06-10T01:21:48;9.60;;;5.10;;
6928;SDS011;3504;52.616;13.238;2023-06-10T01:26:49;10.53;;;5.27;;
6928;SDS011;3504;52.616;13.238;2023-06-10T01:31:56;10.90;;;5.03;;
6928;SDS011;3504;52.616;13.238;2023-06-10T01:37:06;11.33;;;5.53;;
6928;SDS011;3504;52.616;13.238;2023-06-10T01:42:09;6.90;;;5.30;;
6928;SDS011;3504;52.616;13.238;2023-06-10T01:47:11;11.10;;;5.30;;
6928;SDS011;3504;52.616;13.238;2023-06-10T01:52:12;13.10;;;5.50;;
6928;SDS011;3504;52.616;13.238;2023-06-10T01:57:13;11.23;;;5.37;;
6928;SDS011;3504;52.616;13.238;2023-06-10T02:02:13;14.97;;;5.20;;
6928;SDS011;3504;52.616;13.238;2023-06-10T02:07:14;10.33;;;5.40;;
6928;SDS011;3504;52.616;13.238;2023-06-10T02:12:14;10.63;;;4.77;;
6928;SDS011;3504;52.616;13.238;2023-06-10T02:17:15;11.07;;;5.30;;
6928;SDS011;3504;52.616;13.238;2023-06-10T02:22:16;12.40;;;5.60;;
6928;SDS011;3504;52.616;13.238;2023-06-10T02:27:17;9.57;;;4.87;;
6928;SDS011;3504;52.616;13.238;2023-06-10T02:32:18;10.83;;;5.43;;
6928;SDS011;3504;52.616;13.238;2023-06-10T02:37:19;8.60;;;4.57;;
6928;SDS011;3504;52.616;13.238;2023-06-10T02:42:19;10.23;;;5.40;;
6928;SDS011;3504;52.616;13.238;2023-06-10T02:47:21;12.23;;;5.63;;
6928;SDS011;3504;52.616;13.238;2023-06-10T02:52:22;11.90;;;5.63;;
6928;SDS011;3504;52.616;13.238;2023-06-10T02:57:23;14.37;;;5.73;;
6928;SDS011;3504;52.616;13.238;2023-06-10T03:02:24;10.20;;;5.70;;
6928;SDS011;3504;52.616;13.238;2023-06-10T03:07:28;10.93;;;5.43;;
6928;SDS011;3504;52.616;13.238;2023-06-10T03:12:29;7.70;;;5.27;;
6928;SDS011;3504;52.616;13.238;2023-06-10T03:17:30;11.93;;;5.30;;
6928;SDS011;3504;52.616;13.238;2023-06-10T03:22:30;9.87;;;5.50;;
6928;SDS011;3504;52.616;13.238;2023-06-10T03:27:40;11.83;;;5.30;;
6928;SDS011;3504;52.616;13.238;2023-06-10T03:32:43;12.40;;;5.63;;
6928;SDS011;3504;52.616;13.238;2023-06-10T03:37:46;10.00;;;5.53;;
6928;SDS011;3504;52.616;13.238;2023-06-10T03:42:47;11.33;;;5.63;;
6928;SDS011;3504;52.616;13.238;2023-06-10T03:47:50;9.47;;;5.70;;
6928;SDS011;3504;52.616;13.238;2023-06-10T03:52:55;9.00;;;5.73;;
6928;SDS011;3504;52.616;13.238;2023-06-10T03:57:59;10.43;;;6.33;;
6928;SDS011;3504;52.616;13.238;2023-06-10T04:03:00;10.40;;;5.83;;
6928;SDS011;3504;52.616;13.238;2023-06-10T04:08:10;15.23;;;6.40;;
6928;SDS011;3504;52.616;13.238;2023-06-10T04:13:11;13.30;;;6.07;;
6928;SDS011;3504;52.616;13.238;2023-06-10T04:18:18;11.73;;;6.67;;
6928;SDS011;3504;52.616;13.238;2023-06-10T04:23:20;15.13;;;6.57;;
6928;SDS011;3504;52.616;13.238;2023-06-10T04:28:21;9.57;;;6.20;;
6928;SDS011;3504;52.616;13.238;2023-06-10T04:33:24;13.33;;;6.30;;
6928;SDS011;3504;52.616;13.238;2023-06-10T04:38:25;8.10;;;6.13;;
6928;SDS011;3504;52.616;13.238;2023-06-10T04:43:26;9.13;;;6.27;;
6928;SDS011;3504;52.616;13.238;2023-06-10T04:48:28;9.93;;;5.70;;
6928;SDS011;3504;52.616;13.238;2023-06-10T04:53:29;10.87;;;6.43;;
6928;SDS011;3504;52.616;13.238;2023-06-10T04:58:30;12.27;;;6.70;;
6928;SDS011;3504;52.616;13.238;2023-06-10T05:03:31;15.13;;;6.77;;
6928;SDS011;3504;52.616;13.238;2023-06-10T05:08:31;13.37;;;6.63;;
6928;SDS011;3504;52.616;13.238;2023-06-10T05:13:32;14.83;;;6.87;;
6928;SDS011;3504;52.616;13.238;2023-06-10T05:18:32;12.47;;;6.53;;
6928;SDS011;3504;52.616;13.238;2023-06-10T05:23:33;15.90;;;6.83;;
6928;SDS011;3504;52.616;13.238;2023-06-10T05:28:33;9.93;;;6.13;;
6928;SDS011;3504;52.616;13.238;2023-06-10T05:33:34;14.23;;;8.63;;
6928;SDS011;3504;52.616;13.238;2023-06-10T05:38:34;17.43;;;7.87;;
6928;SDS011;3504;52.616;13.238;2023-06-10T05:43:35;14.50;;;7.27;;
6928;SDS011;3504;52.616;13.238;2023-06-10T05:48:35;14.27;;;6.97;;
6928;SDS011;3504;52.616;13.238;2023-06-10T05:53:36;14.13;;;7.47;;
6928;SDS011;3504;52.616;13.238;2023-06-10T05:58:36;12.50;;;7.38;;
6928;SDS011;3504;52.616;13.238;2023-06-10T06:03:37;11.02;;;6.85;;
6928;SDS011;3504;52.616;13.238;2023-06-10T06:08:37;12.93;;;7.18;;
6928;SDS011;3504;52.616;13.238;2023-06-10T06:13:38;10.85;;;6.75;;
6928;SDS011;3504;52.616;13.238;2023-06-10T06:18:38;13.45;;;6.53;;
6928;SDS011;3504;52.616;13.238;2023-06-10T06:23:39;11.95;;;6.88;;
6928;SDS011;3504;52.616;13.238;2023-06-10T06:28:39;10.55;;;6.60;;
6928;SDS011;3504;52.616;13.238;2023-06-10T06:33:40;9.32;;;7.15;;
6928;SDS011;3504;52.616;13.238;2023-06-10T06:38:40;11.27;;;7.53;;
6928;SDS011;3504;52.616;13.238;2023-06-10T06:43:41;11.45;;;7.50;;
6928;SDS011;3504;52.616;13.238;2023-06-10T06:48:59;8.85;;;6.80;;
6928;SDS011;3504;52.616;13.238;2023-06-10T06:53:59;13.63;;;7.75;;
6928;SDS011;3504;52.616;13.238;2023-06-10T06:59:00;10.25;;;7.90;;
6928;SDS011;3504;52.616;13.238;2023-06-10T07:04:00;12.43;;;7.85;;
6928;SDS011;3504;52.616;13.238;2023-06-10T07:09:01;11.38;;;7.13;;
6928;SDS011;3504;52.616;13.238;2023-06-10T07:14:02;10.60;;;7.53;;
6928;SDS011;3504;52.616;13.238;2023-06-10T07:19:02;10.23;;;7.88;;
6928;SDS011;3504;52.616;13.238;2023-06-10T07:24:03;11.35;;;7.50;;
6928;SDS011;3504;52.616;13.238;2023-06-10T07:29:04;9.98;;;7.85;;
6928;SDS011;3504;52.616;13.238;2023-06-10T07:34:05;15.45;;;8.23;;
6928;SDS011;3504;52.616;13.238;2023-06-10T07:39:05;9.77;;;7.15;;
6928;SDS011;3504;52.616;13.238;2023-06-10T07:44:07;9.52;;;7.85;;
6928;SDS011;3504;52.616;13.238;2023-06-10T07:49:07;12.32;;;8.15;;
6928;SDS011;3504;52.616;13.238;2023-06-10T07:54:08;16.15;;;7.95;;
6928;SDS011;3504;52.616;13.238;2023-06-10T07:59:08;18.85;;;8.13;;
6928;SDS011;3504;52.616;13.238;2023-06-10T08:04:09;11.68;;;8.20;;
6928;SDS011;3504;52.616;13.238;2023-06-10T08:09:11;11.57;;;8.07;;
6928;SDS011;3504;52.616;13.238;2023-06-10T08:14:12;13.18;;;8.20;;
6928;SDS011;3504;52.616;13.238;2023-06-10T08:19:12;9.88;;;7.35;;
6928;SDS011;3504;52.616;13.238;2023-06-10T08:24:13;15.07;;;8.25;;
6928;SDS011;3504;52.616;13.238;2023-06-10T08:29:16;10.63;;;8.23;;
6928;SDS011;3504;52.616;13.238;2023-06-10T08:34:16;12.05;;;8.73;;
6928;SDS011;3504;52.616;13.238;2023-06-10T08:39:17;14.68;;;8.18;;
6928;SDS011;3504;52.616;13.238;2023-06-10T08:44:22;11.27;;;7.82;;
6928;SDS011;3504;52.616;13.238;2023-06-10T08:49:29;9.70;;;8.23;;
6928;SDS011;3504;52.616;13.238;2023-06-10T08:54:33;10.68;;;8.82;;
6928;SDS011;3504;52.616;13.238;2023-06-10T08:59:37;10.32;;;8.15;;
6928;SDS011;3504;52.616;13.238;2023-06-10T09:04:39;11.13;;;8.20;;
6928;SDS011;3504;52.616;13.238;2023-06-10T09:09:42;9.77;;;7.88;;
6928;SDS011;3504;52.616;13.238;2023-06-10T09:14:44;13.07;;;8.88;;
6928;SDS011;3504;52.616;13.238;2023-06-10T09:19:45;12.27;;;9.13;;
6928;SDS011;3504;52.616;13.238;2023-06-10T09:24:47;13.90;;;8.52;;
6928;SDS011;3504;52.616;13.238;2023-06-10T09:29:51;14.27;;;8.43;;
6928;SDS011;3504;52.616;13.238;2023-06-10T09:34:53;14.50;;;8.15;;
6928;SDS011;3504;52.616;13.238;2023-06-10T09:40:07;13.27;;;8.32;;
6928;SDS011;3504;52.616;13.238;2023-06-10T09:45:08;14.00;;;8.02;;
6928;SDS011;3504;52.616;13.238;2023-06-10T09:50:09;10.90;;;7.53;;
6928;SDS011;3504;52.616;13.238;2023-06-10T09:55:10;11.60;;;8.15;;
6928;SDS011;3504;52.616;13.238;2023-06-10T10:00:11;16.33;;;8.20;;
6928;SDS011;3504;52.616;13.238;2023-06-10T10:05:14;10.15;;;7.60;;
6928;SDS011;3504;52.616;13.238;2023-06-10T10:10:18;15.07;;;8.25;;
6928;SDS011;3504;52.616;13.238;2023-06-10T10:15:20;10.75;;;7.90;;
6928;SDS011;3504;52.616;13.238;2023-06-10T10:20:24;12.32;;;8.55;;
6928;SDS011;3504;52.616;13.238;2023-06-10T10:25:35;11.75;;;8.15;;
6928;SDS011;3504;52.616;13.238;2023-06-10T10:30:42;10.52;;;8.00;;
6928;SDS011;3504;52.616;13.238;2023-06-10T10:35:50;11.38;;;8.00;;
6928;SDS011;3504;52.616;13.238;2023-06-10T10:40:51;12.88;;;8.50;;
6928;SDS011;3504;52.616;13.238;2023-06-10T10:45:59;19.15;;;8.50;;
6928;SDS011;3504;52.616;13.238;2023-06-10T10:51:08;10.50;;;7.63;;
6928;SDS011;3504;52.616;13.238;2023-06-10T10:56:13;10.88;;;7.90;;
6928;SDS011;3504;52.616;13.238;2023-06-10T11:01:15;9.18;;;7.82;;
6928;SDS011;3504;52.616;13.238;2023-06-10T11:06:17;9.65;;;7.78;;
6928;SDS011;3504;52.616;13.238;2023-06-10T11:11:19;8.25;;;7.30;;
6928;SDS011;3504;52.616;13.238;2023-06-10T11:16:26;12.77;;;7.95;;
6928;SDS011;3504;52.616;13.238;2023-06-10T11:21:28;9.68;;;7.72;;
6928;SDS011;3504;52.616;13.238;2023-06-10T11:26:29;9.35;;;7.25;;
6928;SDS011;3504;52.616;13.238;2023-06-10T11:36:43;9.68;;;7.43;;
6928;SDS011;3504;52.616;13.238;2023-06-10T11:41:45;10.80;;;7.70;;
6928;SDS011;3504;52.616;13.238;2023-06-10T11:46:50;9.65;;;6.68;;
6928;SDS011;3504;52.616;13.238;2023-06-10T11:51:51;8.63;;;6.43;;
6928;SDS011;3504;52.616;13.238;2023-06-10T11:56:56;8.18;;;6.68;;
6928;SDS011;3504;52.616;13.238;2023-06-10T12:01:59;8.90;;;6.95;;
6928;SDS011;3504;52.616;13.238;2023-06-10T12:06:59;12.07;;;6.97;;
6928;SDS011;3504;52.616;13.238;2023-06-10T12:12:03;9.85;;;6.88;;
6928;SDS011;3504;52.616;13.238;2023-06-10T12:17:10;12.30;;;7.60;;
6928;SDS011;3504;52.616;13.238;2023-06-10T12:22:11;9.50;;;7.35;;
6928;SDS011;3504;52.616;13.238;2023-06-10T12:27:12;8.80;;;7.13;;
6928;SDS011;3504;52.616;13.238;2023-06-10T12:32:13;9.40;;;7.18;;
6928;SDS011;3504;52.616;13.238;2023-06-10T12:37:15;7.63;;;6.70;;
6928;SDS011;3504;52.616;13.238;2023-06-10T12:42:16;7.18;;;6.47;;
6928;SDS011;3504;52.616;13.238;2023-06-10T12:47:17;10.77;;;6.22;;
6928;SDS011;3504;52.616;13.238;2023-06-10T12:52:17;6.90;;;6.13;;
6928;SDS011;3504;52.616;13.238;2023-06-10T12:57:18;7.13;;;6.45;;
6928;SDS011;3504;52.616;13.238;2023-06-10T13:02:18;9.13;;;6.90;;
6928;SDS011;3504;52.616;13.238;2023-06-10T13:07:20;8.25;;;7.55;;
6928;SDS011;3504;52.616;13.238;2023-06-10T13:12:22;9.52;;;7.97;;
6928;SDS011;3504;52.616;13.238;2023-06-10T13:17:25;16.02;;;9.50;;
6928;SDS011;3504;52.616;13.238;2023-06-10T13:22:26;9.32;;;8.52;;
6928;SDS011;3504;52.616;13.238;2023-06-10T13:27:27;14.15;;;10.55;;
6928;SDS011;3504;52.616;13.238;2023-06-10T13:32:27;10.90;;;9.85;;
6928;SDS011;3504;52.616;13.238;2023-06-10T13:37:28;10.30;;;9.23;;
6928;SDS011;3504;52.616;13.238;2023-06-10T13:42:28;10.07;;;9.10;;
6928;SDS011;3504;52.616;13.238;2023-06-10T13:47:29;9.32;;;8.40;;
6928;SDS011;3504;52.616;13.238;2023-06-10T13:52:32;11.02;;;8.85;;
6928;SDS011;3504;52.616;13.238;2023-06-10T13:57:33;9.00;;;7.57;;
6928;SDS011;3504;52.616;13.238;2023-06-10T14:02:36;9.07;;;8.18;;
6928;SDS011;3504;52.616;13.238;2023-06-10T14:07:37;9.02;;;7.70;;
6928;SDS011;3504;52.616;13.238;2023-06-10T14:12:37;9.70;;;7.68;;
6928;SDS011;3504;52.616;13.238;2023-06-10T14:17:38;10.15;;;8.43;;
6928;SDS011;3504;52.616;13.238;2023-06-10T14:22:39;8.85;;;8.05;;
6928;SDS011;3504;52.616;13.238;2023-06-10T14:27:40;12.18;;;7.75;;
6928;SDS011;3504;52.616;13.238;2023-06-10T14:32:43;9.65;;;6.40;;
6928;SDS011;3504;52.616;13.238;2023-06-10T14:37:44;7.30;;;6.70;;
6928;SDS011;3504;52.616;13.238;2023-06-10T14:42:45;7.63;;;7.00;;
6928;SDS011;3504;52.616;13.238;2023-06-10T14:47:48;10.38;;;6.75;;
6928;SDS011;3504;52.616;13.238;2023-06-10T14:52:49;6.63;;;6.00;;
6928;SDS011;3504;52.616;13.238;2023-06-10T14:57:49;6.13;;;5.53;;
6928;SDS011;3504;52.616;13.238;2023-06-10T15:02:50;6.78;;;6.18;;
6928;SDS011;3504;52.616;13.238;2023-06-10T15:07:50;8.90;;;7.22;;
6928;SDS011;3504;52.616;13.238;2023-06-10T15:12:51;10.52;;;7.28;;
6928;SDS011;3504;52.616;13.238;2023-06-10T15:17:55;8.18;;;6.35;;
6928;SDS011;3504;52.616;13.238;2023-06-10T15:22:56;9.90;;;6.60;;
6928;SDS011;3504;52.616;13.238;2023-06-10T15:27:56;7.22;;;6.53;;
6928;SDS011;3504;52.616;13.238;2023-06-10T15:32:57;7.38;;;6.18;;
6928;SDS011;3504;52.616;13.238;2023-06-10T15:37:57;8.00;;;6.30;;
6928;SDS011;3504;52.616;13.238;2023-06-10T15:42:58;7.45;;;6.25;;
6928;SDS011;3504;52.616;13.238;2023-06-10T15:47:58;8.25;;;6.82;;
6928;SDS011;3504;52.616;13.238;2023-06-10T15:52:59;7.15;;;6.35;;
6928;SDS011;3504;52.616;13.238;2023-06-10T15:58:00;7.53;;;6.82;;
6928;SDS011;3504;52.616;13.238;2023-06-10T16:03:03;8.32;;;6.70;;
6928;SDS011;3504;52.616;13.238;2023-06-10T16:08:04;6.88;;;6.13;;
6928;SDS011;3504;52.616;13.238;2023-06-10T16:13:04;7.50;;;6.80;;
6928;SDS011;3504;52.616;13.238;2023-06-10T16:18:05;7.43;;;6.40;;
6928;SDS011;3504;52.616;13.238;2023-06-10T16:23:06;6.93;;;6.32;;
6928;SDS011;3504;52.616;13.238;2023-06-10T16:28:07;8.25;;;6.80;;
6928;SDS011;3504;52.616;13.238;2023-06-10T16:33:07;6.97;;;6.15;;
6928;SDS011;3504;52.616;13.238;2023-06-10T16:38:08;7.55;;;6.68;;
6928;SDS011;3504;52.616;13.238;2023-06-10T16:43:08;6.60;;;5.90;;
6928;SDS011;3504;52.616;13.238;2023-06-10T16:48:09;7.38;;;6.20;;
6928;SDS011;3504;52.616;13.238;2023-06-10T16:53:09;8.02;;;6.47;;
6928;SDS011;3504;52.616;13.238;2023-06-10T16:58:10;8.18;;;5.72;;
6928;SDS011;3504;52.616;13.238;2023-06-10T17:03:11;8.75;;;5.68;;
6928;SDS011;3504;52.616;13.238;2023-06-10T17:08:12;5.32;;;4.85;;
6928;SDS011;3504;52.616;13.238;2023-06-10T17:13:13;9.00;;;5.45;;
6928;SDS011;3504;52.616;13.238;2023-06-10T17:18:13;12.98;;;6.93;;
6928;SDS011;3504;52.616;13.238;2023-06-10T17:23:14;6.35;;;5.43;;
6928;SDS011;3504;52.616;13.238;2023-06-10T17:28:15;7.72;;;5.60;;
6928;SDS011;3504;52.616;13.238;2023-06-10T17:33:15;6.40;;;5.15;;
6928;SDS011;3504;52.616;13.238;2023-06-10T17:38:16;6.55;;;5.57;;
6928;SDS011;3504;52.616;13.238;2023-06-10T17:43:17;7.50;;;6.05;;
6928;SDS011;3504;52.616;13.238;2023-06-10T17:48:17;6.20;;;5.20;;
6928;SDS011;3504;52.616;13.238;2023-06-10T17:53:18;6.10;;;4.93;;
6928;SDS011;3504;52.616;13.238;2023-06-10T17:58:19;6.53;;;5.93;;
6928;SDS011;3504;52.616;13.238;2023-06-10T18:03:19;5.95;;;5.18;;
6928;SDS011;3504;52.616;13.238;2023-06-10T18:08:26;7.60;;;5.30;;
6928;SDS011;3504;52.616;13.238;2023-06-10T18:13:28;7.32;;;5.40;;
6928;SDS011;3504;52.616;13.238;2023-06-10T18:18:28;7.38;;;6.18;;
6928;SDS011;3504;52.616;13.238;2023-06-10T18:23:29;13.25;;;6.00;;
6928;SDS011;3504;52.616;13.238;2023-06-10T18:28:29;8.77;;;5.85;;
6928;SDS011;3504;52.616;13.238;2023-06-10T18:33:30;7.03;;;5.68;;
6928;SDS011;3504;52.616;13.238;2023-06-10T18:38:32;6.38;;;5.72;;
6928;SDS011;3504;52.616;13.238;2023-06-10T18:43:32;6.20;;;5.55;;
6928;SDS011;3504;52.616;13.238;2023-06-10T18:48:33;10.10;;;7.38;;
6928;SDS011;3504;52.616;13.238;2023-06-10T18:53:33;6.35;;;5.68;;
6928;SDS011;3504;52.616;13.238;2023-06-10T18:58:34;6.38;;;5.57;;
6928;SDS011;3504;52.616;13.238;2023-06-10T19:03:35;7.60;;;5.15;;
6928;SDS011;3504;52.616;13.238;2023-06-10T19:08:36;6.18;;;4.95;;
6928;SDS011;3504;52.616;13.238;2023-06-10T19:13:36;7.93;;;5.38;;
6928;SDS011;3504;52.616;13.238;2023-06-10T19:18:36;6.85;;;5.03;;
6928;SDS011;3504;52.616;13.238;2023-06-10T19:23:38;5.35;;;4.85;;
6928;SDS011;3504;52.616;13.238;2023-06-10T19:28:38;5.97;;;4.57;;
6928;SDS011;3504;52.616;13.238;2023-06-10T19:33:39;7.22;;;5.40;;
6928;SDS011;3504;52.616;13.238;2023-06-10T19:38:39;8.18;;;5.07;;
6928;SDS011;3504;52.616;13.238;2023-06-10T19:43:40;11.05;;;5.45;;
6928;SDS011;3504;52.616;13.238;2023-06-10T19:48:42;6.32;;;4.75;;
6928;SDS011;3504;52.616;13.238;2023-06-10T19:53:43;8.60;;;4.75;;
6928;SDS011;3504;52.616;13.238;2023-06-10T19:58:45;6.90;;;4.43;;
6928;SDS011;3504;52.616;13.238;2023-06-10T20:03:46;5.25;;;3.88;;
6928;SDS011;3504;52.616;13.238;2023-06-10T20:08:47;10.50;;;4.65;;
6928;SDS011;3504;52.616;13.238;2023-06-10T20:13:47;8.10;;;4.75;;
6928;SDS011;3504;52.616;13.238;2023-06-10T20:18:51;7.90;;;4.18;;
6928;SDS011;3504;52.616;13.238;2023-06-10T20:23:51;7.07;;;4.70;;
6928;SDS011;3504;52.616;13.238;2023-06-10T20:28:52;7.63;;;4.35;;
6928;SDS011;3504;52.616;13.238;2023-06-10T20:33:53;8.73;;;4.53;;
6928;SDS011;3504;52.616;13.238;2023-06-10T20:38:54;8.57;;;3.92;;
6928;SDS011;3504;52.616;13.238;2023-06-10T20:43:55;8.63;;;3.92;;
6928;SDS011;3504;52.616;13.238;2023-06-10T20:48:57;8.40;;;3.80;;
6928;SDS011;3504;52.616;13.238;2023-06-10T20:54:01;8.75;;;3.90;;
6928;SDS011;3504;52.616;13.238;2023-06-10T20:59:01;9.68;;;3.88;;
6928;SDS011;3504;52.616;13.238;2023-06-10T21:04:02;7.53;;;4.28;;
6928;SDS011;3504;52.616;13.238;2023-06-10T21:09:02;9.07;;;4.28;;
6928;SDS011;3504;52.616;13.238;2023-06-10T21:14:03;5.65;;;3.10;;
6928;SDS011;3504;52.616;13.238;2023-06-10T21:19:04;6.78;;;3.90;;
6928;SDS011;3504;52.616;13.238;2023-06-10T21:24:05;7.72;;;4.13;;
6928;SDS011;3504;52.616;13.238;2023-06-10T21:29:05;6.75;;;3.30;;
6928;SDS011;3504;52.616;13.238;2023-06-10T21:34:06;10.32;;;3.90;;
6928;SDS011;3504;52.616;13.238;2023-06-10T21:39:07;11.65;;;3.67;;
6928;SDS011;3504;52.616;13.238;2023-06-10T21:44:08;9.63;;;3.65;;
6928;SDS011;3504;52.616;13.238;2023-06-10T21:49:08;9.15;;;3.95;;
6928;SDS011;3504;52.616;13.238;2023-06-10T21:54:09;8.02;;;4.40;;
6928;SDS011;3504;52.616;13.238;2023-06-10T21:59:09;7.97;;;3.97;;
6928;SDS011;3504;52.616;13.238;2023-06-10T22:04:10;8.45;;;3.95;;
6928;SDS011;3504;52.616;13.238;2023-06-10T22:09:11;7.30;;;4.13;;
6928;SDS011;3504;52.616;13.238;2023-06-10T22:14:11;5.32;;;3.90;;
6928;SDS011;3504;52.616;13.238;2023-06-10T22:19:13;9.38;;;4.35;;
6928;SDS011;3504;52.616;13.238;2023-06-10T22:24:13;7.85;;;4.00;;
6928;SDS011;3504;52.616;13.238;2023-06-10T22:29:14;6.18;;;3.78;;
6928;SDS011;3504;52.616;13.238;2023-06-10T22:34:17;6.70;;;3.95;;
6928;SDS011;3504;52.616;13.238;2023-06-10T22:39:18;5.25;;;3.65;;
6928;SDS011;3504;52.616;13.238;2023-06-10T22:44:18;8.43;;;3.97;;
6928;SDS011;3504;52.616;13.238;2023-06-10T22:49:19;7.38;;;3.78;;
6928;SDS011;3504;52.616;13.238;2023-06-10T22:54:20;6.45;;;3.78;;
6928;SDS011;3504;52.616;13.238;2023-06-10T22:59:20;6.38;;;3.80;;
6928;SDS011;3504;52.616;13.238;2023-06-10T23:04:21;5.95;;;3.95;;
6928;SDS011;3504;52.616;13.238;2023-06-10T23:09:21;7.82;;;4.40;;
6928;SDS011;3504;52.616;13.238;2023-06-10T23:14:21;7.72;;;4.38;;
6928;SDS011;3504;52.616;13.238;2023-06-10T23:19:22;8.05;;;4.18;;
6928;SDS011;3504;52.616;13.238;2023-06-10T23:24:23;9.73;;;3.88;;
6928;SDS011;3504;52.616;13.238;2023-06-10T23:29:30;7.75;;;3.67;;
6928;SDS011;3504;52.616;13.238;2023-06-10T23:34:31;9.38;;;4.00;;
6928;SDS011;3504;52.616;13.238;2023-06-10T23:39:31;7.13;;;3.92;;
6928;SDS011;3504;52.616;13.238;2023-06-10T23:44:32;8.40;;;3.83;;
6928;SDS011;3504;52.616;13.238;2023-06-10T23:49:32;5.28;;;4.03;;
6928;SDS011;3504;52.616;13.238;2023-06-10T23:54:33;7.97;;;4.30;;
6928;SDS011;3504;52.616;13.238;2023-06-10T23:59:33;4.78;;;4.30;;
